createdAt,value
2022-10-31T00:04:20.706Z,6.44
2022-10-31T00:09:27.627Z,5.90
2022-10-31T00:14:34.671Z,6.51
2022-10-31T00:19:41.607Z,6.52
2022-10-31T00:24:48.673Z,7.01
2022-10-31T00:29:55.565Z,6.93
2022-10-31T00:35:02.623Z,6.63
2022-10-31T00:40:09.536Z,7.37
2022-10-31T00:45:16.651Z,7.52
2022-10-31T00:50:23.581Z,7.45
2022-10-31T00:55:30.682Z,7.32
2022-10-31T01:00:37.601Z,7.44
2022-10-31T01:05:44.698Z,7.46
2022-10-31T01:10:51.625Z,7.96
2022-10-31T01:15:58.613Z,9.30
2022-10-31T01:21:05.634Z,8.65
2022-10-31T01:26:12.718Z,9.62
2022-10-31T01:31:19.730Z,11.08
2022-10-31T01:36:26.727Z,9.85
2022-10-31T01:41:33.642Z,10.27
2022-10-31T01:46:40.642Z,10.14
2022-10-31T01:51:47.594Z,9.95
2022-10-31T01:56:54.766Z,10.78
2022-10-31T02:02:01.873Z,10.16
2022-10-31T02:07:08.680Z,10.30
2022-10-31T02:12:15.569Z,10.45
2022-10-31T02:17:22.622Z,9.66
2022-10-31T02:22:29.583Z,15.72
2022-10-31T02:27:36.753Z,14.21
2022-10-31T02:32:43.516Z,10.38
2022-10-31T02:37:50.713Z,10.26
2022-10-31T02:42:58.221Z,10.71
2022-10-31T02:48:04.448Z,10.93
2022-10-31T02:53:11.372Z,10.49
2022-10-31T03:03:24.941Z,10.95
2022-10-31T03:08:31.966Z,10.35
2022-10-31T03:13:38.899Z,10.94
2022-10-31T03:18:45.882Z,13.74
2022-10-31T03:23:52.802Z,11.56
2022-10-31T03:29:00.288Z,12.15
2022-10-31T03:34:07.186Z,10.50
2022-10-31T03:39:14.196Z,11.20
2022-10-31T03:44:21.077Z,13.17
2022-10-31T03:49:28.157Z,12.08
2022-10-31T03:54:35.072Z,16.32
2022-10-31T03:59:42.072Z,13.82
2022-10-31T04:04:48.968Z,15.06
2022-10-31T04:09:56.016Z,16.81
2022-10-31T04:15:02.933Z,18.69
2022-10-31T04:20:09.966Z,17.72
2022-10-31T04:25:16.852Z,17.17
2022-10-31T04:30:23.834Z,17.77
2022-10-31T04:35:30.781Z,17.24
2022-10-31T04:40:37.832Z,15.41
2022-10-31T04:45:44.737Z,15.85
2022-10-31T04:50:51.742Z,13.69
2022-10-31T04:55:58.660Z,14.79
2022-10-31T05:01:05.787Z,12.39
2022-10-31T05:06:12.619Z,11.84
2022-10-31T05:11:19.644Z,9.61
2022-10-31T05:16:26.556Z,8.43
2022-10-31T05:21:33.518Z,7.68
2022-10-31T05:26:40.440Z,6.90
2022-10-31T05:31:48.286Z,5.82
2022-10-31T05:36:55.200Z,6.36
2022-10-31T05:42:02.283Z,5.81
2022-10-31T05:47:09.222Z,5.78
2022-10-31T05:52:16.255Z,5.84
2022-10-31T05:57:23.218Z,5.26
2022-10-31T06:02:30.251Z,4.82
2022-10-31T06:07:37.185Z,5.56
2022-10-31T06:12:44.211Z,5.55
2022-10-31T06:17:51.114Z,6.51
2022-10-31T06:22:58.430Z,5.66
2022-10-31T06:28:05.076Z,5.98
2022-10-31T06:33:12.180Z,6.32
2022-10-31T06:38:19.178Z,5.98
2022-10-31T06:43:26.309Z,6.36
2022-10-31T06:48:33.268Z,6.30
2022-10-31T06:53:40.346Z,7.00
2022-10-31T06:58:47.275Z,5.36
2022-10-31T07:03:54.290Z,5.59
2022-10-31T07:09:01.373Z,4.56
2022-10-31T07:14:08.387Z,5.35
2022-10-31T07:19:15.318Z,5.59
2022-10-31T07:24:22.426Z,5.17
2022-10-31T07:29:29.342Z,5.14
2022-10-31T07:34:36.455Z,4.63
2022-10-31T07:39:43.424Z,4.77
2022-10-31T07:44:52.708Z,4.93
2022-10-31T07:49:57.167Z,5.01
2022-10-31T07:55:04.181Z,5.32
2022-10-31T08:00:11.079Z,5.67
2022-10-31T08:05:18.141Z,5.41
2022-10-31T08:10:25.034Z,5.74
2022-10-31T08:15:32.132Z,5.63
2022-10-31T08:20:39.076Z,5.26
2022-10-31T08:25:46.110Z,5.57
2022-10-31T08:30:52.989Z,6.10
2022-10-31T08:36:00.124Z,6.42
2022-10-31T08:41:07.015Z,7.44
2022-10-31T08:46:14.176Z,6.14
2022-10-31T08:51:21.108Z,6.56
2022-10-31T08:56:28.128Z,6.70
2022-10-31T09:01:35.162Z,6.21
2022-10-31T09:06:50.448Z,6.24
2022-10-31T09:11:48.502Z,6.04
2022-10-31T09:16:55.531Z,6.30
2022-10-31T09:22:02.423Z,6.24
2022-10-31T09:27:09.508Z,5.87
2022-10-31T09:32:16.444Z,6.31
2022-10-31T09:37:23.450Z,5.94
2022-10-31T09:42:30.341Z,5.96
2022-10-31T09:47:37.305Z,5.27
2022-10-31T09:52:44.235Z,5.20
2022-10-31T09:57:51.257Z,4.95
2022-10-31T10:02:58.397Z,4.79
2022-10-31T10:08:05.201Z,4.60
2022-10-31T10:13:12.443Z,4.55
2022-10-31T10:18:18.657Z,4.01
2022-10-31T10:23:25.572Z,4.19
2022-10-31T10:28:32.582Z,4.00
2022-10-31T10:33:39.565Z,3.89
2022-10-31T10:38:46.631Z,3.64
2022-10-31T10:43:53.647Z,3.81
2022-10-31T10:49:00.788Z,3.33
2022-10-31T10:54:10.531Z,3.37
2022-10-31T10:59:14.265Z,3.61
2022-10-31T11:04:21.208Z,3.03
2022-10-31T11:09:28.417Z,3.35
2022-10-31T11:14:35.336Z,3.07
2022-10-31T11:19:42.371Z,2.91
2022-10-31T11:24:49.335Z,3.32
2022-10-31T11:30:00.592Z,3.30
2022-10-31T11:35:02.879Z,2.99
2022-10-31T11:40:09.994Z,2.87
2022-10-31T11:45:16.922Z,3.23
2022-10-31T11:50:23.932Z,3.09
2022-10-31T11:55:30.851Z,2.56
2022-10-31T12:00:37.904Z,3.34
2022-10-31T12:05:44.882Z,2.93
2022-10-31T12:10:51.858Z,2.95
2022-10-31T12:15:58.871Z,3.07
2022-10-31T12:21:05.873Z,2.51
2022-10-31T12:26:12.823Z,2.51
2022-10-31T12:31:19.844Z,2.42
2022-10-31T12:36:26.751Z,2.89
2022-10-31T12:41:34.706Z,2.59
2022-10-31T12:46:40.337Z,2.29
2022-10-31T12:51:47.526Z,2.50
2022-10-31T12:56:54.455Z,2.32
2022-10-31T13:02:01.754Z,2.47
2022-10-31T13:07:08.505Z,2.38
2022-10-31T13:12:15.524Z,2.25
2022-10-31T13:17:22.410Z,2.52
2022-10-31T13:22:29.439Z,2.56
2022-10-31T13:27:36.355Z,2.48
2022-10-31T13:32:43.365Z,2.78
2022-10-31T13:37:54.640Z,2.59
2022-10-31T13:42:57.064Z,2.61
2022-10-31T13:48:04.337Z,2.71
2022-10-31T13:53:10.624Z,2.55
2022-10-31T13:58:17.566Z,2.54
2022-10-31T14:03:49.394Z,2.72
2022-10-31T14:08:31.095Z,3.17
2022-10-31T14:13:38.163Z,2.85
2022-10-31T14:18:45.100Z,2.83
2022-10-31T14:23:54.225Z,3.36
2022-10-31T14:28:58.698Z,2.94
2022-10-31T14:34:05.715Z,3.36
2022-10-31T14:39:12.622Z,3.08
2022-10-31T14:44:20.777Z,3.39
2022-10-31T14:49:27.706Z,3.40
2022-10-31T14:54:34.834Z,3.22
2022-10-31T14:59:41.783Z,3.11
2022-10-31T15:04:48.763Z,3.30
2022-10-31T15:09:55.855Z,3.86
2022-10-31T15:15:02.964Z,3.38
2022-10-31T15:20:09.856Z,3.55
2022-10-31T15:25:16.949Z,3.69
2022-10-31T15:30:23.869Z,4.01
2022-10-31T15:35:31.041Z,4.21
2022-10-31T15:40:37.949Z,4.21
2022-10-31T15:45:45.055Z,4.63
2022-10-31T15:50:52.002Z,4.47
2022-10-31T15:55:59.082Z,3.97
2022-10-31T16:01:06.128Z,5.27
2022-10-31T16:06:13.248Z,3.80
2022-10-31T16:11:20.254Z,4.44
2022-10-31T16:16:35.122Z,4.81
2022-10-31T16:21:33.891Z,5.59
2022-10-31T16:26:40.933Z,4.79
2022-10-31T16:31:47.870Z,5.14
2022-10-31T16:36:54.892Z,4.61
2022-10-31T16:42:01.827Z,4.78
2022-10-31T16:47:09.344Z,4.80
2022-10-31T16:52:16.480Z,5.16
2022-10-31T16:57:23.488Z,5.01
2022-10-31T17:02:30.492Z,4.67
2022-10-31T17:07:37.499Z,4.88
2022-10-31T17:12:44.420Z,4.64
2022-10-31T17:17:51.476Z,4.75
2022-10-31T17:22:58.600Z,4.95
2022-10-31T17:28:05.450Z,3.85
2022-10-31T17:33:12.368Z,3.65
2022-10-31T17:38:19.442Z,4.44
2022-10-31T17:43:26.398Z,4.21
2022-10-31T17:48:33.436Z,4.12
2022-10-31T17:53:40.408Z,4.23
2022-10-31T17:58:47.415Z,4.43
2022-10-31T18:03:54.290Z,3.75
2022-10-31T18:09:01.445Z,4.31
2022-10-31T18:14:08.471Z,3.73
2022-10-31T18:19:15.643Z,3.57
2022-10-31T18:24:22.558Z,5.55
2022-10-31T18:29:29.560Z,4.36
2022-10-31T18:34:36.499Z,6.97
2022-10-31T18:39:43.781Z,10.77
2022-10-31T18:44:50.785Z,5.73
2022-10-31T18:49:57.939Z,5.81
2022-10-31T18:55:04.844Z,24.06
2022-10-31T19:00:11.953Z,14.80
2022-10-31T19:05:18.886Z,15.28
2022-10-31T19:10:26.019Z,8.16
2022-10-31T19:15:32.933Z,7.70
2022-10-31T19:20:39.976Z,8.71
2022-10-31T19:25:46.956Z,6.52
2022-10-31T19:30:53.968Z,10.34
2022-10-31T19:36:00.900Z,10.51
2022-10-31T19:41:08.967Z,10.74
2022-10-31T19:46:22.013Z,12.84
2022-10-31T19:51:22.567Z,9.17
2022-10-31T19:56:29.539Z,6.51
2022-10-31T20:01:36.731Z,8.23
2022-10-31T20:06:43.601Z,11.07
2022-10-31T20:11:50.780Z,9.23
2022-10-31T20:16:57.723Z,9.53
2022-10-31T20:22:04.836Z,16.45
2022-10-31T20:27:11.801Z,9.53
2022-10-31T20:32:18.837Z,6.25
2022-10-31T20:37:25.760Z,9.45
2022-10-31T20:42:32.837Z,14.44
2022-10-31T20:47:39.742Z,14.60
2022-10-31T20:52:46.883Z,12.65
2022-10-31T20:57:53.854Z,10.21
2022-10-31T21:03:01.244Z,10.48
2022-10-31T21:08:07.942Z,9.29
2022-10-31T21:13:15.172Z,8.47
2022-10-31T21:18:22.249Z,9.43
2022-10-31T21:23:29.345Z,30.09
2022-10-31T21:28:36.450Z,9.63
2022-10-31T21:33:43.428Z,8.14
2022-10-31T21:38:50.576Z,8.07
2022-10-31T21:43:57.600Z,7.79
2022-10-31T21:49:04.573Z,7.87
2022-10-31T21:54:11.510Z,13.08
2022-10-31T21:59:18.479Z,14.15
2022-10-31T22:04:25.515Z,10.56
2022-10-31T22:09:32.511Z,9.30
2022-10-31T22:14:39.534Z,9.29
2022-10-31T22:19:46.629Z,8.93
2022-10-31T22:24:53.686Z,10.84
2022-10-31T22:30:00.607Z,10.19
2022-10-31T22:35:07.603Z,9.90
2022-10-31T22:40:14.541Z,9.60
2022-10-31T22:45:21.595Z,9.19
2022-10-31T22:50:28.554Z,11.16
2022-10-31T22:55:35.576Z,12.03
2022-10-31T23:00:42.568Z,12.97
2022-10-31T23:05:49.589Z,15.11
2022-10-31T23:10:56.484Z,12.50
2022-10-31T23:16:03.584Z,12.66
2022-10-31T23:21:10.488Z,13.26
2022-10-31T23:26:17.584Z,12.55
2022-10-31T23:31:24.494Z,13.24
2022-10-31T23:36:31.592Z,13.94
2022-10-31T23:41:38.538Z,13.13
2022-10-31T23:46:45.600Z,13.03
2022-10-31T23:51:52.623Z,14.11
2022-10-31T23:56:59.627Z,14.03
